createdAt,value
2018-12-02T00:00:01.632Z,921.54
2018-12-02T00:00:14.724Z,921.49
2018-12-02T00:00:27.811Z,921.5
2018-12-02T00:00:40.905Z,921.48
2018-12-02T00:00:53.995Z,921.5
2018-12-02T00:01:07.087Z,921.48
2018-12-02T00:01:20.905Z,921.49
2018-12-02T00:01:33.997Z,921.46
2018-12-02T00:01:47.132Z,921.46
2018-12-02T00:02:00.225Z,921.45
2018-12-02T00:02:13.334Z,921.45
2018-12-02T00:02:26.440Z,921.44
2018-12-02T00:02:39.744Z,921.45
2018-12-02T00:02:52.824Z,921.44
2018-12-02T00:03:05.919Z,921.41
2018-12-02T00:03:19.003Z,921.43
2018-12-02T00:03:32.098Z,921.4
2018-12-02T00:03:45.195Z,921.39
2018-12-02T00:03:58.294Z,921.39
2018-12-02T00:04:11.592Z,921.41
2018-12-02T00:04:24.687Z,921.38
2018-12-02T00:04:39.441Z,921.4
2018-12-02T00:04:52.553Z,921.4
2018-12-02T00:05:06.559Z,921.46
2018-12-02T00:05:19.657Z,921.4
2018-12-02T00:05:32.750Z,921.46
2018-12-02T00:05:45.842Z,921.46
2018-12-02T00:05:58.932Z,921.43
2018-12-02T00:06:12.012Z,921.48
2018-12-02T00:06:25.315Z,921.47
2018-12-02T00:06:39.151Z,921.45
2018-12-02T00:06:52.472Z,921.49
2018-12-02T00:07:05.558Z,921.49
2018-12-02T00:07:18.654Z,921.52
2018-12-02T00:07:31.954Z,921.51
2018-12-02T00:07:45.034Z,921.55
2018-12-02T00:07:58.138Z,921.57
2018-12-02T00:08:11.242Z,921.56
2018-12-02T00:08:24.343Z,921.56
2018-12-02T00:08:37.437Z,921.55
2018-12-02T00:08:50.821Z,921.56
2018-12-02T00:09:03.910Z,921.56
2018-12-02T00:09:18.214Z,921.56
2018-12-02T00:09:31.306Z,921.54
2018-12-02T00:09:44.413Z,921.5
2018-12-02T00:09:57.508Z,921.55
2018-12-02T00:10:10.597Z,921.54
2018-12-02T00:10:23.892Z,921.53
2018-12-02T00:10:37.173Z,921.53
2018-12-02T00:10:50.470Z,921.54
2018-12-02T00:11:03.565Z,921.57
2018-12-02T00:11:16.209Z,921.55
2018-12-02T00:11:29.316Z,921.53
2018-12-02T00:11:42.420Z,921.56
2018-12-02T00:11:55.260Z,921.54
2018-12-02T00:12:07.902Z,921.54
2018-12-02T00:12:20.988Z,921.53
2018-12-02T00:12:36.206Z,921.55
2018-12-02T00:12:49.351Z,921.59
2018-12-02T00:13:03.926Z,921.58
2018-12-02T00:13:16.550Z,921.57
2018-12-02T00:13:29.644Z,921.58
2018-12-02T00:13:42.740Z,921.58
2018-12-02T00:13:55.849Z,921.59
2018-12-02T00:14:09.649Z,921.57
2018-12-02T00:14:22.751Z,921.58
2018-12-02T00:14:36.043Z,921.58
2018-12-02T00:14:49.133Z,921.58
2018-12-02T00:15:02.221Z,921.6
2018-12-02T00:15:15.329Z,921.57
2018-12-02T00:15:28.440Z,921.55
2018-12-02T00:15:41.534Z,921.55
2018-12-02T00:15:54.630Z,921.58
2018-12-02T00:16:07.934Z,921.59
2018-12-02T00:16:21.208Z,921.58
2018-12-02T00:16:34.306Z,921.56
2018-12-02T00:16:47.634Z,921.57
2018-12-02T00:17:00.956Z,921.56
2018-12-02T00:17:14.950Z,921.55
2018-12-02T00:17:28.053Z,921.52
2018-12-02T00:17:43.030Z,921.55
2018-12-02T00:17:56.133Z,921.57
2018-12-02T00:18:09.444Z,921.54
2018-12-02T00:18:22.537Z,921.56
2018-12-02T00:18:36.217Z,921.56
2018-12-02T00:18:49.570Z,921.56
2018-12-02T00:19:02.687Z,921.59
2018-12-02T00:19:15.785Z,921.55
2018-12-02T00:19:30.774Z,921.58
2018-12-02T00:19:43.878Z,921.58
2018-12-02T00:19:57.695Z,921.62
2018-12-02T00:20:10.790Z,921.61
2018-12-02T00:20:23.876Z,921.67
2018-12-02T00:20:36.959Z,921.62
2018-12-02T00:20:50.054Z,921.65
2018-12-02T00:21:04.800Z,921.64
2018-12-02T00:21:18.091Z,921.64
2018-12-02T00:21:31.189Z,921.61
2018-12-02T00:21:43.820Z,921.64
2018-12-02T00:21:56.906Z,921.64
2018-12-02T00:22:11.421Z,921.67
2018-12-02T00:22:24.722Z,921.64
2018-12-02T00:22:37.811Z,921.66
2018-12-02T00:22:51.755Z,921.63
2018-12-02T00:23:04.846Z,921.63
2018-12-02T00:23:18.153Z,921.62
2018-12-02T00:23:31.248Z,921.61
2018-12-02T00:23:44.347Z,921.6
2018-12-02T00:23:58.150Z,921.6
2018-12-02T00:24:11.248Z,921.61
2018-12-02T00:24:24.362Z,921.61
2018-12-02T00:24:37.470Z,921.59
2018-12-02T00:24:50.576Z,921.55
2018-12-02T00:25:03.671Z,921.58
2018-12-02T00:25:16.750Z,921.61
2018-12-02T00:25:29.854Z,921.58
2018-12-02T00:25:42.487Z,921.62
2018-12-02T00:25:55.771Z,921.6
2018-12-02T00:26:08.866Z,921.61
2018-12-02T00:26:21.946Z,921.6
2018-12-02T00:26:35.755Z,921.64
2018-12-02T00:26:48.855Z,921.66
2018-12-02T00:27:02.148Z,921.66
2018-12-02T00:27:15.263Z,921.65
2018-12-02T00:27:30.569Z,921.71
2018-12-02T00:27:43.856Z,921.7
2018-12-02T00:27:56.965Z,921.77
2018-12-02T00:28:10.277Z,921.78
2018-12-02T00:28:23.389Z,921.77
2018-12-02T00:28:36.505Z,921.83
2018-12-02T00:28:49.798Z,921.85
2018-12-02T00:29:04.558Z,921.87
2018-12-02T00:29:17.706Z,921.89
2018-12-02T00:29:30.993Z,921.89
2018-12-02T00:29:44.077Z,921.88
2018-12-02T00:29:57.613Z,921.91
2018-12-02T00:30:10.709Z,921.89
2018-12-02T00:30:23.805Z,921.93
2018-12-02T00:30:37.615Z,921.91
2018-12-02T00:30:50.712Z,921.93
2018-12-02T00:31:03.361Z,921.93
2018-12-02T00:31:16.490Z,921.94
2018-12-02T00:31:29.590Z,921.99
2018-12-02T00:31:42.684Z,921.94
2018-12-02T00:31:55.777Z,921.93
2018-12-02T00:32:09.487Z,921.97
2018-12-02T00:32:22.787Z,921.97
2018-12-02T00:32:35.927Z,921.98
2018-12-02T00:32:49.021Z,921.98
2018-12-02T00:33:02.835Z,921.97
2018-12-02T00:33:15.932Z,921.96
2018-12-02T00:33:29.022Z,921.96
2018-12-02T00:33:42.136Z,922
2018-12-02T00:33:55.240Z,921.97
2018-12-02T00:34:08.341Z,922
2018-12-02T00:34:21.442Z,922.04
2018-12-02T00:34:35.272Z,921.99
2018-12-02T00:34:48.384Z,921.97
2018-12-02T00:35:01.486Z,921.95
2018-12-02T00:35:14.588Z,921.99
2018-12-02T00:35:27.700Z,921.95
2018-12-02T00:35:40.781Z,921.95
2018-12-02T00:35:54.092Z,921.97
2018-12-02T00:36:07.215Z,921.95
2018-12-02T00:36:20.314Z,921.94
2018-12-02T00:36:33.431Z,921.94
2018-12-02T00:36:46.522Z,921.9
2018-12-02T00:36:59.613Z,921.89
2018-12-02T00:37:12.704Z,921.87
2018-12-02T00:37:25.798Z,921.93
2018-12-02T00:37:38.884Z,921.88
2018-12-02T00:37:52.478Z,921.87
2018-12-02T00:38:05.581Z,921.86
2018-12-02T00:38:18.705Z,921.89
2018-12-02T00:38:31.805Z,921.85
2018-12-02T00:38:44.437Z,921.84
2018-12-02T00:38:58.822Z,921.78
2018-12-02T00:39:11.913Z,921.83
2018-12-02T00:39:25.018Z,921.81
2018-12-02T00:39:38.831Z,921.83
2018-12-02T00:39:51.921Z,921.8
2018-12-02T00:40:05.016Z,921.8
2018-12-02T00:40:18.118Z,921.81
2018-12-02T00:40:31.228Z,921.81
2018-12-02T00:40:44.529Z,921.8
2018-12-02T00:41:00.554Z,921.77
2018-12-02T00:41:13.648Z,921.78
2018-12-02T00:41:26.744Z,921.8
2018-12-02T00:41:39.835Z,921.8
2018-12-02T00:41:53.135Z,921.79
2018-12-02T00:42:06.243Z,921.81
2018-12-02T00:42:19.349Z,921.79
2018-12-02T00:42:32.467Z,921.83
2018-12-02T00:42:45.564Z,921.83
2018-12-02T00:42:58.656Z,921.83
2018-12-02T00:43:11.752Z,921.82
2018-12-02T00:43:24.395Z,921.83
2018-12-02T00:43:37.551Z,921.83
2018-12-02T00:43:50.860Z,921.84
2018-12-02T00:44:04.044Z,921.84
2018-12-02T00:44:17.135Z,921.86
2018-12-02T00:44:31.727Z,921.87
2018-12-02T00:44:44.822Z,921.89
2018-12-02T00:44:58.605Z,921.87
2018-12-02T00:45:12.435Z,921.89
2018-12-02T00:45:25.529Z,921.88
2018-12-02T00:45:38.633Z,921.89
2018-12-02T00:45:51.736Z,921.86
2018-12-02T00:46:04.824Z,921.89
2018-12-02T00:46:17.906Z,921.87
2018-12-02T00:46:31.218Z,921.88
2018-12-02T00:46:44.331Z,921.86
2018-12-02T00:46:57.434Z,921.89
2018-12-02T00:47:10.549Z,921.89
2018-12-02T00:47:23.654Z,921.9
2018-12-02T00:47:36.766Z,921.86
2018-12-02T00:47:50.074Z,921.88
2018-12-02T00:48:03.647Z,921.88
2018-12-02T00:48:16.735Z,921.87
2018-12-02T00:48:29.831Z,921.83
2018-12-02T00:48:42.934Z,921.85
2018-12-02T00:48:56.951Z,921.83
2018-12-02T00:49:10.038Z,921.83
2018-12-02T00:49:23.138Z,921.88
2018-12-02T00:49:36.244Z,921.86
2018-12-02T00:49:49.341Z,921.87
2018-12-02T00:50:02.445Z,921.85
2018-12-02T00:50:16.262Z,921.85
2018-12-02T00:50:29.589Z,921.84
2018-12-02T00:50:43.797Z,921.86
2018-12-02T00:50:56.888Z,921.88
2018-12-02T00:51:09.972Z,921.85
2018-12-02T00:51:23.281Z,921.86
2018-12-02T00:51:36.388Z,921.86
2018-12-02T00:51:49.489Z,921.86
2018-12-02T00:52:02.780Z,921.82
2018-12-02T00:52:15.879Z,921.87
2018-12-02T00:52:28.975Z,921.86
2018-12-02T00:52:42.770Z,921.82
2018-12-02T00:52:56.752Z,921.85
2018-12-02T00:53:09.841Z,921.84
2018-12-02T00:53:22.924Z,921.83
2018-12-02T00:53:36.033Z,921.82
2018-12-02T00:53:49.131Z,921.84
2018-12-02T00:54:02.244Z,921.86
2018-12-02T00:54:16.038Z,921.86
2018-12-02T00:54:29.147Z,921.85
2018-12-02T00:54:42.253Z,921.84
2018-12-02T00:54:55.355Z,921.88
2018-12-02T00:55:08.645Z,921.86
2018-12-02T00:55:21.931Z,921.84
2018-12-02T00:55:35.021Z,921.87
2018-12-02T00:55:48.138Z,921.85
2018-12-02T00:56:01.241Z,921.92
2018-12-02T00:56:14.344Z,921.89
2018-12-02T00:56:28.296Z,921.89
2018-12-02T00:56:41.394Z,921.92
2018-12-02T00:56:54.731Z,921.93
2018-12-02T00:57:07.848Z,921.93
2018-12-02T00:57:20.963Z,921.93
2018-12-02T00:57:34.079Z,921.95
2018-12-02T00:57:47.200Z,921.96
2018-12-02T00:58:00.501Z,921.97
2018-12-02T00:58:13.647Z,921.99
2018-12-02T00:58:26.743Z,922
2018-12-02T00:58:39.842Z,922.02
2018-12-02T00:58:52.939Z,922.01
2018-12-02T00:59:06.045Z,922
2018-12-02T00:59:19.221Z,921.99
2018-12-02T00:59:32.338Z,922.01
2018-12-02T00:59:45.450Z,922.05
2018-12-02T00:59:58.553Z,922.02
2018-12-02T01:00:11.650Z,922.06
2018-12-02T01:00:24.759Z,922.03
2018-12-02T01:00:38.055Z,922.05
2018-12-02T01:00:51.245Z,922.04
2018-12-02T01:01:04.358Z,922.05
2018-12-02T01:01:17.474Z,922.03
2018-12-02T01:01:30.577Z,922.05
2018-12-02T01:01:43.874Z,922.05
2018-12-02T01:01:56.968Z,922.08
2018-12-02T01:02:10.089Z,922.07
2018-12-02T01:02:23.261Z,922.08
2018-12-02T01:02:38.565Z,922.07
2018-12-02T01:02:51.877Z,922.09
2018-12-02T01:03:05.712Z,922.06
2018-12-02T01:03:18.830Z,922.12
2018-12-02T01:03:31.931Z,922.1
2018-12-02T01:03:45.022Z,922.14
2018-12-02T01:03:58.123Z,922.13
2018-12-02T01:04:12.911Z,922.14
2018-12-02T01:04:26.775Z,922.14
2018-12-02T01:04:39.885Z,922.11
2018-12-02T01:04:53.002Z,922.12
2018-12-02T01:05:06.118Z,922.16
2018-12-02T01:05:20.714Z,922.13
2018-12-02T01:05:34.541Z,922.16
2018-12-02T01:05:48.574Z,922.15
2018-12-02T01:06:01.884Z,922.13
2018-12-02T01:06:15.227Z,922.13
2018-12-02T01:06:28.750Z,922.13
2018-12-02T01:06:41.850Z,922.11
2018-12-02T01:07:01.567Z,922.14
2018-12-02T01:07:14.674Z,922.14
2018-12-02T01:07:27.769Z,922.13
2018-12-02T01:07:40.884Z,922.14
2018-12-02T01:07:54.903Z,922.13
2018-12-02T01:08:08.022Z,922.11
2018-12-02T01:08:21.847Z,922.13
2018-12-02T01:08:35.180Z,922.13
2018-12-02T01:08:48.505Z,922.13
2018-12-02T01:09:01.602Z,922.14
2018-12-02T01:09:17.873Z,922.13
2018-12-02T01:09:30.972Z,922.13
2018-12-02T01:09:44.287Z,922.11
2018-12-02T01:09:57.394Z,922.12
2018-12-02T01:10:10.503Z,922.14
2018-12-02T01:10:23.594Z,922.14
2018-12-02T01:10:36.718Z,922.18
2018-12-02T01:10:49.896Z,922.16
2018-12-02T01:11:03.004Z,922.14
2018-12-02T01:11:16.120Z,922.15
2018-12-02T01:11:29.236Z,922.17
2018-12-02T01:11:42.342Z,922.18
2018-12-02T01:11:55.453Z,922.18
2018-12-02T01:12:08.105Z,922.22
2018-12-02T01:12:21.205Z,922.22
2018-12-02T01:12:34.323Z,922.21
2018-12-02T01:12:47.441Z,922.23
2018-12-02T01:13:00.551Z,922.2
2018-12-02T01:13:13.847Z,922.21
2018-12-02T01:13:26.952Z,922.22
2018-12-02T01:13:40.260Z,922.21
2018-12-02T01:13:53.371Z,922.23
2018-12-02T01:14:06.473Z,922.21
2018-12-02T01:14:20.917Z,922.18
2018-12-02T01:14:35.503Z,922.2
2018-12-02T01:14:48.827Z,922.18
2018-12-02T01:15:01.936Z,922.17
2018-12-02T01:15:16.526Z,922.17
2018-12-02T01:15:29.630Z,922.16
2018-12-02T01:15:43.427Z,922.18
2018-12-02T01:15:56.590Z,922.15
2018-12-02T01:16:09.884Z,922.15
2018-12-02T01:16:23.701Z,922.15
2018-12-02T01:16:36.793Z,922.13
2018-12-02T01:16:49.875Z,922.12
2018-12-02T01:17:02.974Z,922.11
2018-12-02T01:17:16.062Z,922.07
2018-12-02T01:17:29.873Z,922.11
2018-12-02T01:17:42.964Z,922.1
2018-12-02T01:17:56.797Z,922.08
2018-12-02T01:18:10.612Z,922.07
2018-12-02T01:18:25.197Z,922.04
2018-12-02T01:18:38.302Z,922.07
2018-12-02T01:18:51.410Z,922.08
2018-12-02T01:19:04.517Z,922.08
2018-12-02T01:19:17.668Z,922.09
2018-12-02T01:19:30.309Z,922.08
2018-12-02T01:19:43.412Z,922.07
2018-12-02T01:19:56.513Z,922.07
2018-12-02T01:20:09.816Z,922.02
2018-12-02T01:20:22.927Z,922.07
2018-12-02T01:20:36.719Z,922.05
2018-12-02T01:20:49.816Z,922.03
2018-12-02T01:21:03.133Z,922.03
2018-12-02T01:21:16.241Z,922.03
2018-12-02T01:21:29.538Z,922.04
2018-12-02T01:21:42.629Z,922.07
2018-12-02T01:21:55.733Z,922.05
2018-12-02T01:22:08.827Z,922.03
2018-12-02T01:22:22.123Z,922.04
2018-12-02T01:22:35.233Z,922.05
2018-12-02T01:22:48.328Z,922.04
2018-12-02T01:23:01.435Z,922.01
2018-12-02T01:23:14.533Z,922.03
2018-12-02T01:23:27.636Z,922.04
2018-12-02T01:23:40.740Z,922.01
2018-12-02T01:23:53.855Z,922.03
2018-12-02T01:24:06.973Z,922.03
2018-12-02T01:24:22.309Z,922.05
2018-12-02T01:24:36.013Z,922.04
2018-12-02T01:24:49.113Z,922.03
2018-12-02T01:25:03.695Z,922.05
2018-12-02T01:25:16.795Z,922.05
2018-12-02T01:25:29.913Z,922.06
2018-12-02T01:25:43.013Z,922.06
2018-12-02T01:25:56.115Z,921.99
2018-12-02T01:26:09.228Z,922.04
2018-12-02T01:26:22.342Z,922.04
2018-12-02T01:26:35.440Z,922.02
2018-12-02T01:26:48.984Z,922.04
2018-12-02T01:27:02.142Z,922.02
2018-12-02T01:27:15.250Z,922.03
2018-12-02T01:27:28.345Z,922.07
2018-12-02T01:27:41.447Z,922.04
2018-12-02T01:27:54.590Z,922.02
2018-12-02T01:28:07.692Z,921.99
2018-12-02T01:28:20.782Z,922.02
2018-12-02T01:28:33.881Z,922
2018-12-02T01:28:46.513Z,922.02
2018-12-02T01:28:59.604Z,921.99
2018-12-02T01:29:12.717Z,921.99
2018-12-02T01:29:25.810Z,922.01
2018-12-02T01:29:38.884Z,922
2018-12-02T01:29:51.963Z,921.98
2018-12-02T01:30:05.043Z,921.97
2018-12-02T01:30:19.834Z,922.01
2018-12-02T01:30:32.913Z,921.95
2018-12-02T01:30:45.545Z,921.96
2018-12-02T01:30:58.647Z,921.94
2018-12-02T01:31:11.735Z,921.95
2018-12-02T01:31:24.816Z,921.95
2018-12-02T01:31:37.895Z,921.94
2018-12-02T01:31:50.977Z,921.91
2018-12-02T01:32:04.067Z,921.89
2018-12-02T01:32:18.638Z,921.93
2018-12-02T01:32:31.731Z,921.87
2018-12-02T01:32:44.820Z,921.89
2018-12-02T01:32:57.897Z,921.87
2018-12-02T01:33:10.981Z,921.83
2018-12-02T01:33:24.796Z,921.88
2018-12-02T01:33:37.883Z,921.86
2018-12-02T01:33:50.963Z,921.87
2018-12-02T01:34:04.061Z,921.85
2018-12-02T01:34:18.634Z,921.84
2018-12-02T01:34:31.730Z,921.85
2018-12-02T01:34:44.809Z,921.86
2018-12-02T01:34:57.909Z,921.82
2018-12-02T01:35:11.010Z,921.86
2018-12-02T01:35:24.123Z,921.84
2018-12-02T01:35:37.247Z,921.83
2018-12-02T01:35:50.349Z,921.84
2018-12-02T01:36:03.654Z,921.81
2018-12-02T01:36:16.769Z,921.82
2018-12-02T01:36:29.848Z,921.8
2018-12-02T01:36:42.926Z,921.81
2018-12-02T01:36:56.014Z,921.8
2018-12-02T01:37:09.119Z,921.79
2018-12-02T01:37:22.894Z,921.81
2018-12-02T01:37:35.965Z,921.82
2018-12-02T01:37:49.052Z,921.82
2018-12-02T01:38:02.864Z,921.8
2018-12-02T01:38:15.939Z,921.82
2018-12-02T01:38:29.020Z,921.82
2018-12-02T01:38:42.101Z,921.81
2018-12-02T01:38:55.202Z,921.85
2018-12-02T01:39:08.301Z,921.83
2018-12-02T01:39:21.405Z,921.84
2018-12-02T01:39:35.542Z,921.77
2018-12-02T01:39:48.642Z,921.79
2018-12-02T01:40:01.734Z,921.8
2018-12-02T01:40:14.821Z,921.82
2018-12-02T01:40:27.460Z,921.83
2018-12-02T01:40:40.550Z,921.8
2018-12-02T01:40:53.637Z,921.78
2018-12-02T01:41:06.742Z,921.79
2018-12-02T01:41:19.838Z,921.77
2018-12-02T01:41:32.943Z,921.77
2018-12-02T01:41:46.056Z,921.77
2018-12-02T01:41:59.154Z,921.79
2018-12-02T01:42:12.264Z,921.76
2018-12-02T01:42:25.364Z,921.81
2018-12-02T01:42:38.463Z,921.74
2018-12-02T01:42:51.572Z,921.75
2018-12-02T01:43:04.675Z,921.76
2018-12-02T01:43:17.798Z,921.75
2018-12-02T01:43:30.906Z,921.79
2018-12-02T01:43:43.999Z,921.76
2018-12-02T01:43:57.089Z,921.74
2018-12-02T01:44:10.193Z,921.78
2018-12-02T01:44:23.491Z,921.76
2018-12-02T01:44:36.876Z,921.73
2018-12-02T01:44:49.972Z,921.75
2018-12-02T01:45:03.085Z,921.73
2018-12-02T01:45:16.191Z,921.78
2018-12-02T01:45:29.300Z,921.74
2018-12-02T01:45:42.600Z,921.73
2018-12-02T01:45:55.693Z,921.76
2018-12-02T01:46:08.805Z,921.74
2018-12-02T01:46:21.900Z,921.73
2018-12-02T01:46:35.000Z,921.73
2018-12-02T01:46:48.814Z,921.75
2018-12-02T01:47:01.884Z,921.77
2018-12-02T01:47:14.975Z,921.74
2018-12-02T01:47:28.073Z,921.77
2018-12-02T01:47:41.175Z,921.71
2018-12-02T01:47:54.276Z,921.71
2018-12-02T01:48:07.573Z,921.74
2018-12-02T01:48:20.660Z,921.76
2018-12-02T01:48:33.753Z,921.75
2018-12-02T01:48:46.833Z,921.72
2018-12-02T01:49:00.842Z,921.7
2018-12-02T01:49:13.934Z,921.73
2018-12-02T01:49:27.024Z,921.71
2018-12-02T01:49:40.806Z,921.74
2018-12-02T01:49:53.943Z,921.73
2018-12-02T01:50:07.750Z,921.73
2018-12-02T01:50:20.832Z,921.72
2018-12-02T01:50:33.904Z,921.72
2018-12-02T01:50:46.986Z,921.69
2018-12-02T01:51:00.073Z,921.74
2018-12-02T01:51:12.718Z,921.73
2018-12-02T01:51:25.826Z,921.75
2018-12-02T01:51:38.919Z,921.71
2018-12-02T01:51:52.025Z,921.74
2018-12-02T01:52:05.816Z,921.68
2018-12-02T01:52:18.907Z,921.74
2018-12-02T01:52:31.991Z,921.73
2018-12-02T01:52:45.088Z,921.73
2018-12-02T01:52:58.196Z,921.71
2018-12-02T01:53:11.496Z,921.71
2018-12-02T01:53:24.578Z,921.74
2018-12-02T01:53:37.668Z,921.69
2018-12-02T01:53:50.758Z,921.72
2018-12-02T01:54:03.853Z,921.74
2018-12-02T01:54:16.944Z,921.68
2018-12-02T01:54:30.046Z,921.67
2018-12-02T01:54:43.876Z,921.66
2018-12-02T01:54:56.969Z,921.68
2018-12-02T01:55:10.064Z,921.66
2018-12-02T01:55:23.189Z,921.64
2018-12-02T01:55:36.298Z,921.58
2018-12-02T01:55:49.395Z,921.56
2018-12-02T01:56:02.508Z,921.57
2018-12-02T01:56:15.601Z,921.61
2018-12-02T01:56:28.700Z,921.58
2018-12-02T01:56:41.791Z,921.54
2018-12-02T01:56:54.869Z,921.55
2018-12-02T01:57:07.971Z,921.54
2018-12-02T01:57:21.072Z,921.59
2018-12-02T01:57:34.186Z,921.54
2018-12-02T01:57:47.283Z,921.52
2018-12-02T01:58:00.385Z,921.49
2018-12-02T01:58:13.475Z,921.49
2018-12-02T01:58:26.567Z,921.49
2018-12-02T01:58:39.664Z,921.49
2018-12-02T01:58:52.769Z,921.48
2018-12-02T01:59:05.866Z,921.52
2018-12-02T01:59:18.956Z,921.49
2018-12-02T01:59:32.055Z,921.47
2018-12-02T01:59:46.806Z,921.46
2018-12-02T01:59:59.893Z,921.47
2018-12-02T02:00:14.477Z,921.48
2018-12-02T02:00:27.582Z,921.48
2018-12-02T02:00:40.684Z,921.5
2018-12-02T02:00:53.331Z,921.47
2018-12-02T02:01:06.445Z,921.45
2018-12-02T02:01:19.549Z,921.48
2018-12-02T02:01:32.634Z,921.46
2018-12-02T02:01:45.729Z,921.46
2018-12-02T02:01:58.845Z,921.47
2018-12-02T02:02:12.157Z,921.48
2018-12-02T02:02:25.287Z,921.47
2018-12-02T02:02:38.405Z,921.48
2018-12-02T02:02:51.506Z,921.46
2018-12-02T02:03:04.602Z,921.46
2018-12-02T02:03:17.691Z,921.46
2018-12-02T02:03:30.792Z,921.45
2018-12-02T02:03:43.894Z,921.5
2018-12-02T02:03:56.990Z,921.51
2018-12-02T02:04:10.098Z,921.49
2018-12-02T02:04:23.211Z,921.51
2018-12-02T02:04:36.321Z,921.48
2018-12-02T02:04:49.414Z,921.52
2018-12-02T02:05:02.530Z,921.51
2018-12-02T02:05:15.630Z,921.48
2018-12-02T02:05:28.772Z,921.48
2018-12-02T02:05:41.871Z,921.55
2018-12-02T02:05:56.475Z,921.54
2018-12-02T02:06:09.779Z,921.53
2018-12-02T02:06:22.872Z,921.53
2018-12-02T02:06:35.962Z,921.51
2018-12-02T02:06:49.061Z,921.51
2018-12-02T02:07:02.170Z,921.53
2018-12-02T02:07:15.271Z,921.54
2018-12-02T02:07:27.926Z,921.52
2018-12-02T02:07:41.022Z,921.5
2018-12-02T02:07:53.676Z,921.54
2018-12-02T02:08:06.802Z,921.54
2018-12-02T02:08:19.906Z,921.55
2018-12-02T02:08:33.722Z,921.54
2018-12-02T02:08:46.817Z,921.55
2018-12-02T02:08:59.897Z,921.54
2018-12-02T02:09:12.981Z,921.56
2018-12-02T02:09:26.088Z,921.58
2018-12-02T02:09:39.186Z,921.56
2018-12-02T02:09:54.624Z,921.53
2018-12-02T02:10:07.720Z,921.55
2018-12-02T02:10:20.814Z,921.53
2018-12-02T02:10:33.915Z,921.51
2018-12-02T02:10:47.003Z,921.54
2018-12-02T02:11:00.101Z,921.54
2018-12-02T02:11:13.209Z,921.52
2018-12-02T02:11:26.711Z,921.53
2018-12-02T02:11:39.801Z,921.53
2018-12-02T02:11:52.885Z,921.54
2018-12-02T02:12:05.977Z,921.5
2018-12-02T02:12:19.069Z,921.5
2018-12-02T02:12:33.646Z,921.51
2018-12-02T02:12:46.746Z,921.5
2018-12-02T02:12:59.846Z,921.5
2018-12-02T02:13:12.931Z,921.48
2018-12-02T02:13:26.026Z,921.52
2018-12-02T02:13:39.127Z,921.5
2018-12-02T02:13:52.230Z,921.52
2018-12-02T02:14:05.326Z,921.5
2018-12-02T02:14:18.425Z,921.48
2018-12-02T02:14:31.540Z,921.46
2018-12-02T02:14:44.836Z,921.47
2018-12-02T02:14:57.921Z,921.48
2018-12-02T02:15:11.021Z,921.47
2018-12-02T02:15:24.786Z,921.51
2018-12-02T02:15:37.891Z,921.48
2018-12-02T02:15:50.983Z,921.49
2018-12-02T02:16:04.123Z,921.49
2018-12-02T02:16:17.230Z,921.46
2018-12-02T02:16:30.335Z,921.5
2018-12-02T02:16:43.443Z,921.5
2018-12-02T02:16:56.532Z,921.49
2018-12-02T02:17:09.639Z,921.49
2018-12-02T02:17:22.756Z,921.45
2018-12-02T02:17:35.864Z,921.47
2018-12-02T02:17:48.952Z,921.47
2018-12-02T02:18:02.065Z,921.44
2018-12-02T02:18:15.215Z,921.48
2018-12-02T02:18:28.527Z,921.46
2018-12-02T02:18:41.614Z,921.45
2018-12-02T02:18:54.704Z,921.48
2018-12-02T02:19:07.805Z,921.47
2018-12-02T02:19:20.901Z,921.47
2018-12-02T02:19:34.011Z,921.45
2018-12-02T02:19:47.113Z,921.47
2018-12-02T02:20:00.216Z,921.48
2018-12-02T02:20:13.514Z,921.46
2018-12-02T02:20:26.649Z,921.5
2018-12-02T02:20:39.760Z,921.47
2018-12-02T02:20:52.862Z,921.47
2018-12-02T02:21:05.965Z,921.46
2018-12-02T02:21:19.071Z,921.52
2018-12-02T02:21:32.171Z,921.48
2018-12-02T02:21:45.283Z,921.46
2018-12-02T02:21:58.383Z,921.49
2018-12-02T02:22:11.483Z,921.45
2018-12-02T02:22:24.595Z,921.45
2018-12-02T02:22:37.897Z,921.45
2018-12-02T02:22:50.994Z,921.43
2018-12-02T02:23:04.094Z,921.45
2018-12-02T02:23:17.208Z,921.44
2018-12-02T02:23:30.367Z,921.45
2018-12-02T02:23:44.181Z,921.44
2018-12-02T02:23:57.288Z,921.4
2018-12-02T02:24:10.602Z,921.39
2018-12-02T02:24:23.717Z,921.4
2018-12-02T02:24:36.808Z,921.4
2018-12-02T02:24:50.015Z,921.4
2018-12-02T02:25:03.114Z,921.38
2018-12-02T02:25:16.229Z,921.4
2018-12-02T02:25:29.086Z,921.34
2018-12-02T02:25:42.194Z,921.38
2018-12-02T02:25:55.306Z,921.34
2018-12-02T02:26:08.404Z,921.31
2018-12-02T02:26:21.504Z,921.3
2018-12-02T02:26:36.083Z,921.29
2018-12-02T02:26:49.197Z,921.3
2018-12-02T02:27:02.321Z,921.29
2018-12-02T02:27:15.422Z,921.29
2018-12-02T02:27:28.522Z,921.26
2018-12-02T02:27:41.616Z,921.26
2018-12-02T02:27:54.262Z,921.29
2018-12-02T02:28:07.373Z,921.24
2018-12-02T02:28:20.491Z,921.26
2018-12-02T02:28:33.580Z,921.25
2018-12-02T02:28:46.678Z,921.25
2018-12-02T02:28:59.771Z,921.25
2018-12-02T02:29:12.864Z,921.22
2018-12-02T02:29:25.963Z,921.24
2018-12-02T02:29:39.050Z,921.2
2018-12-02T02:29:52.839Z,921.23
2018-12-02T02:30:05.942Z,921.19
2018-12-02T02:30:19.056Z,921.21
2018-12-02T02:30:32.160Z,921.18
2018-12-02T02:30:45.275Z,921.16
2018-12-02T02:30:58.386Z,921.18
2018-12-02T02:31:11.493Z,921.19
2018-12-02T02:31:24.607Z,921.19
2018-12-02T02:31:37.721Z,921.18
2018-12-02T02:31:51.544Z,921.16
2018-12-02T02:32:04.652Z,921.14
2018-12-02T02:32:17.768Z,921.12
2018-12-02T02:32:30.891Z,921.16
2018-12-02T02:32:43.997Z,921.15
2018-12-02T02:32:57.157Z,921.12
2018-12-02T02:33:09.795Z,921.12
2018-12-02T02:33:22.930Z,921.12
2018-12-02T02:33:36.758Z,921.1
2018-12-02T02:33:49.876Z,921.09
2018-12-02T02:34:02.985Z,921.08
2018-12-02T02:34:16.849Z,921.09
2018-12-02T02:34:29.942Z,921.1
2018-12-02T02:34:43.097Z,921.07
2018-12-02T02:34:57.677Z,921.09
2018-12-02T02:35:10.786Z,921.1
2018-12-02T02:35:23.904Z,921.09
2018-12-02T02:35:36.557Z,921.14
2018-12-02T02:35:49.867Z,921.13
2018-12-02T02:36:02.969Z,921.13
2018-12-02T02:36:17.552Z,921.13
2018-12-02T02:36:31.380Z,921.14
2018-12-02T02:36:44.481Z,921.11
2018-12-02T02:36:57.791Z,921.14
2018-12-02T02:37:10.890Z,921.15
2018-12-02T02:37:23.990Z,921.14
2018-12-02T02:37:37.106Z,921.14
2018-12-02T02:37:50.231Z,921.15
2018-12-02T02:38:03.385Z,921.16
2018-12-02T02:38:16.508Z,921.19
2018-12-02T02:38:29.609Z,921.16
2018-12-02T02:38:42.721Z,921.19
2018-12-02T02:38:55.818Z,921.16
2018-12-02T02:39:08.929Z,921.16
2018-12-02T02:39:23.503Z,921.18
2018-12-02T02:39:36.593Z,921.19
2018-12-02T02:39:49.240Z,921.18
2018-12-02T02:40:02.632Z,921.19
2018-12-02T02:40:17.196Z,921.2
2018-12-02T02:40:30.304Z,921.19
2018-12-02T02:40:43.604Z,921.19
2018-12-02T02:40:56.705Z,921.22
2018-12-02T02:41:11.279Z,921.19
2018-12-02T02:41:24.385Z,921.19
2018-12-02T02:41:37.490Z,921.2
2018-12-02T02:41:50.584Z,921.17
2018-12-02T02:42:03.683Z,921.18
2018-12-02T02:42:16.771Z,921.2
2018-12-02T02:42:29.400Z,921.18
2018-12-02T02:42:42.046Z,921.2
2018-12-02T02:42:55.180Z,921.2
2018-12-02T02:43:08.501Z,921.18
2018-12-02T02:43:21.610Z,921.19
2018-12-02T02:43:34.708Z,921.19
2018-12-02T02:43:47.808Z,921.19
2018-12-02T02:44:00.910Z,921.17
2018-12-02T02:44:14.032Z,921.18
2018-12-02T02:44:26.864Z,921.16
2018-12-02T02:44:39.959Z,921.18
2018-12-02T02:44:53.074Z,921.15
2018-12-02T02:45:06.215Z,921.16
2018-12-02T02:45:19.316Z,921.15
2018-12-02T02:45:32.425Z,921.15
2018-12-02T02:45:45.559Z,921.13